createdAt,value
2023-11-28T00:01:30.850Z,7.43
2023-11-28T00:04:18.203Z,7.95
2023-11-28T00:07:05.506Z,8.02
2023-11-28T00:09:52.666Z,8.13
2023-11-28T00:12:39.947Z,7.47
2023-11-28T00:15:27.187Z,8.43
2023-11-28T00:18:14.673Z,8.55
2023-11-28T00:21:02.100Z,8.27
2023-11-28T00:23:49.305Z,9.10
2023-11-28T00:26:36.878Z,9.57
2023-11-28T00:29:24.073Z,9.65
2023-11-28T00:32:11.333Z,9.23
2023-11-28T00:34:58.804Z,9.52
2023-11-28T00:37:46.062Z,9.43
2023-11-28T00:40:33.458Z,9.65
2023-11-28T00:43:21.735Z,10.20
2023-11-28T00:46:10.930Z,8.93
2023-11-28T00:48:58.260Z,9.80
2023-11-28T00:51:45.640Z,9.88
2023-11-28T00:54:32.844Z,8.95
2023-11-28T00:57:20.901Z,9.35
2023-11-28T01:00:09.166Z,9.07
2023-11-28T01:02:57.095Z,9.63
2023-11-28T01:05:44.492Z,10.23
2023-11-28T01:08:31.693Z,9.55
2023-11-28T01:11:18.863Z,9.45
2023-11-28T01:14:06.061Z,9.02
2023-11-28T01:16:53.258Z,10.13
2023-11-28T01:19:40.609Z,9.00
2023-11-28T01:22:27.857Z,9.55
2023-11-28T01:25:15.148Z,8.93
2023-11-28T01:28:02.443Z,8.95
2023-11-28T01:30:49.719Z,9.15
2023-11-28T01:33:36.917Z,9.00
2023-11-28T01:36:24.133Z,9.43
2023-11-28T01:39:11.747Z,9.55
2023-11-28T01:41:59.026Z,9.20
2023-11-28T01:44:47.120Z,9.48
2023-11-28T01:47:35.248Z,9.32
2023-11-28T01:50:22.768Z,9.63
2023-11-28T01:53:10.786Z,10.20
2023-11-28T01:55:58.125Z,9.45
2023-11-28T01:58:45.645Z,10.40
2023-11-28T02:01:33.252Z,9.65
2023-11-28T02:04:20.700Z,10.15
2023-11-28T02:07:08.004Z,10.02
2023-11-28T02:09:57.776Z,9.98
2023-11-28T02:12:45.039Z,9.55
2023-11-28T02:15:39.405Z,10.18
2023-11-28T02:18:26.566Z,10.07
2023-11-28T02:21:15.102Z,9.20
2023-11-28T02:24:02.524Z,9.10
2023-11-28T02:26:49.722Z,9.40
2023-11-28T02:29:36.967Z,9.23
2023-11-28T02:32:24.244Z,9.20
2023-11-28T02:35:17.707Z,9.25
2023-11-28T02:38:10.362Z,9.43
2023-11-28T02:40:57.549Z,8.75
2023-11-28T02:43:44.860Z,8.70
2023-11-28T02:46:32.199Z,8.63
2023-11-28T02:49:19.415Z,8.23
2023-11-28T02:52:06.915Z,7.68
2023-11-28T02:54:54.161Z,8.52
2023-11-28T02:57:41.346Z,7.18
2023-11-28T03:00:28.930Z,8.02
2023-11-28T03:03:16.284Z,8.52
2023-11-28T03:06:04.432Z,7.07
2023-11-28T03:08:51.694Z,7.20
2023-11-28T03:11:38.943Z,7.45
2023-11-28T03:14:27.655Z,7.05
2023-11-28T03:17:15.026Z,7.63
2023-11-28T03:20:02.568Z,7.57
2023-11-28T03:22:49.924Z,6.57
2023-11-28T03:25:37.146Z,7.10
2023-11-28T03:28:24.571Z,7.32
2023-11-28T03:31:11.709Z,7.13
2023-11-28T03:33:59.099Z,6.78
2023-11-28T03:36:46.295Z,6.40
2023-11-28T03:39:33.701Z,6.82
2023-11-28T03:42:20.856Z,6.90
2023-11-28T03:45:09.174Z,7.85
2023-11-28T03:47:56.407Z,7.60
2023-11-28T03:50:43.644Z,8.10
2023-11-28T03:53:31.004Z,8.75
2023-11-28T03:56:18.252Z,8.75
2023-11-28T03:59:06.053Z,8.27
2023-11-28T04:01:53.616Z,8.52
2023-11-28T04:04:40.888Z,9.63
2023-11-28T04:07:28.863Z,9.30
2023-11-28T04:10:16.053Z,9.82
2023-11-28T04:13:03.390Z,10.27
2023-11-28T04:15:50.596Z,9.85
2023-11-28T04:18:37.927Z,9.88
2023-11-28T04:21:25.172Z,9.73
2023-11-28T04:24:12.390Z,10.20
2023-11-28T04:26:59.584Z,9.63
2023-11-28T04:29:46.876Z,9.35
2023-11-28T04:32:34.115Z,9.52
2023-11-28T04:35:21.387Z,9.32
2023-11-28T04:38:08.618Z,9.60
2023-11-28T04:40:55.894Z,9.18
2023-11-28T04:43:43.148Z,8.95
2023-11-28T04:46:30.452Z,9.40
2023-11-28T04:49:19.100Z,8.93
2023-11-28T04:52:06.787Z,10.18
2023-11-28T04:54:54.050Z,9.13
2023-11-28T04:57:41.257Z,8.23
2023-11-28T05:00:28.461Z,8.68
2023-11-28T05:03:15.949Z,8.80
2023-11-28T05:06:03.460Z,8.95
2023-11-28T05:08:50.659Z,9.18
2023-11-28T05:11:38.968Z,8.98
2023-11-28T05:14:26.152Z,8.90
2023-11-28T05:17:13.594Z,8.13
2023-11-28T05:20:00.917Z,9.15
2023-11-28T05:22:48.155Z,10.40
2023-11-28T05:25:35.517Z,10.02
2023-11-28T05:28:22.667Z,9.82
2023-11-28T05:31:10.010Z,8.93
2023-11-28T05:33:57.275Z,8.60
2023-11-28T05:36:44.661Z,8.95
2023-11-28T05:39:31.871Z,9.20
2023-11-28T05:42:19.109Z,8.88
2023-11-28T05:45:07.305Z,8.80
2023-11-28T05:47:54.708Z,9.15
2023-11-28T05:50:41.938Z,9.25
2023-11-28T05:53:29.147Z,8.55
2023-11-28T05:56:16.575Z,8.90
2023-11-28T05:59:03.921Z,9.43
2023-11-28T06:02:05.394Z,9.02
2023-11-28T06:04:52.770Z,8.73
2023-11-28T06:07:40.619Z,8.77
2023-11-28T06:10:32.835Z,8.90
2023-11-28T06:13:21.278Z,8.45
2023-11-28T06:16:08.854Z,8.63
2023-11-28T06:18:56.073Z,8.77
2023-11-28T06:21:43.616Z,9.30
2023-11-28T06:24:30.804Z,9.30
2023-11-28T06:27:19.284Z,9.35
2023-11-28T06:30:08.077Z,8.55
2023-11-28T06:32:56.575Z,8.73
2023-11-28T06:35:43.951Z,8.82
2023-11-28T06:38:31.302Z,9.55
2023-11-28T06:41:18.582Z,8.27
2023-11-28T06:44:05.933Z,9.43
2023-11-28T06:46:53.222Z,9.73
2023-11-28T06:49:44.489Z,8.55
2023-11-28T06:52:31.837Z,8.90
2023-11-28T06:55:22.053Z,8.85
2023-11-28T06:58:10.069Z,9.65
2023-11-28T07:00:58.200Z,8.82
2023-11-28T07:03:45.570Z,9.32
2023-11-28T07:06:32.805Z,10.15
2023-11-28T07:09:20.425Z,9.82
2023-11-28T07:12:08.244Z,10.80
2023-11-28T07:14:55.397Z,9.43
2023-11-28T07:17:42.644Z,9.65
2023-11-28T07:20:32.766Z,9.43
2023-11-28T07:23:20.225Z,8.68
2023-11-28T07:26:08.359Z,8.00
2023-11-28T07:28:55.635Z,7.07
2023-11-28T07:31:43.118Z,7.72
2023-11-28T07:34:30.709Z,7.53
2023-11-28T07:37:17.843Z,7.07
2023-11-28T07:40:05.524Z,7.28
2023-11-28T07:42:55.694Z,6.63
2023-11-28T07:45:42.917Z,7.03
2023-11-28T07:48:30.079Z,6.40
2023-11-28T07:51:17.318Z,6.78
2023-11-28T07:54:04.818Z,5.88
2023-11-28T07:56:52.055Z,7.18
2023-11-28T07:59:39.308Z,6.15
2023-11-28T08:02:26.541Z,6.03
2023-11-28T08:05:17.563Z,4.97
2023-11-28T08:08:06.901Z,5.10
2023-11-28T08:10:54.387Z,4.60
2023-11-28T08:13:41.830Z,4.88
2023-11-28T08:16:29.027Z,4.60
2023-11-28T08:19:16.819Z,4.88
2023-11-28T08:22:04.123Z,4.35
2023-11-28T08:24:51.385Z,4.60
2023-11-28T08:27:39.390Z,4.28
2023-11-28T08:30:26.623Z,4.40
2023-11-28T08:33:13.876Z,4.20
2023-11-28T08:36:01.152Z,4.38
2023-11-28T08:38:48.321Z,4.15
2023-11-28T08:41:35.587Z,4.00
2023-11-28T08:44:23.173Z,4.50
2023-11-28T08:47:10.816Z,4.10
2023-11-28T08:50:00.942Z,5.72
2023-11-28T08:52:48.297Z,4.55
2023-11-28T08:55:35.504Z,3.88
2023-11-28T08:58:22.711Z,3.85
2023-11-28T09:01:10.060Z,9.23
2023-11-28T09:03:57.452Z,4.03
2023-11-28T09:06:44.668Z,5.10
2023-11-28T09:09:31.962Z,4.00
2023-11-28T09:12:19.341Z,4.85
2023-11-28T09:15:07.214Z,3.92
2023-11-28T09:17:54.478Z,4.28
2023-11-28T09:20:41.677Z,5.05
2023-11-28T09:23:28.869Z,4.28
2023-11-28T09:26:16.478Z,4.32
2023-11-28T09:29:04.373Z,4.95
2023-11-28T09:31:51.749Z,4.55
2023-11-28T09:34:39.208Z,5.97
2023-11-28T09:37:26.838Z,6.25
2023-11-28T09:40:14.160Z,4.70
2023-11-28T09:43:01.398Z,4.97
2023-11-28T09:45:48.838Z,5.95
2023-11-28T09:48:41.301Z,5.43
2023-11-28T09:51:28.992Z,4.35
2023-11-28T09:54:16.681Z,5.07
2023-11-28T09:57:05.127Z,4.57
2023-11-28T09:59:56.095Z,4.65
2023-11-28T10:02:45.036Z,4.45
2023-11-28T10:05:32.385Z,4.38
2023-11-28T10:08:22.572Z,4.25
2023-11-28T10:11:13.901Z,4.50
2023-11-28T10:14:01.095Z,4.55
2023-11-28T10:16:50.484Z,3.90
2023-11-28T10:19:37.861Z,4.85
2023-11-28T10:22:25.029Z,4.43
2023-11-28T10:25:12.822Z,4.20
2023-11-28T10:28:02.745Z,4.55
2023-11-28T10:30:54.104Z,4.32
2023-11-28T10:33:41.684Z,3.90
2023-11-28T10:36:28.938Z,3.67
2023-11-28T10:39:22.570Z,4.13
2023-11-28T10:42:10.581Z,4.32
2023-11-28T10:45:01.096Z,4.95
2023-11-28T10:47:48.454Z,3.83
2023-11-28T10:50:36.588Z,3.95
2023-11-28T10:53:26.517Z,3.70
2023-11-28T10:56:19.001Z,4.18
2023-11-28T10:59:12.224Z,4.40
2023-11-28T11:02:02.326Z,3.92
2023-11-28T11:04:49.819Z,3.92
2023-11-28T11:07:38.140Z,3.97
2023-11-28T11:10:28.728Z,3.90
2023-11-28T11:13:38.500Z,4.10
2023-11-28T11:16:56.049Z,4.50
2023-11-28T11:19:45.334Z,3.78
2023-11-28T11:22:37.415Z,3.80
2023-11-28T11:25:54.166Z,4.72
2023-11-28T11:28:42.646Z,4.60
2023-11-28T11:31:29.978Z,3.60
2023-11-28T11:34:36.360Z,3.63
2023-11-28T11:37:32.149Z,3.92
2023-11-28T11:40:19.876Z,4.18
2023-11-28T11:43:07.521Z,4.07
2023-11-28T11:45:55.859Z,4.25
2023-11-28T11:48:43.664Z,4.35
2023-11-28T11:51:31.206Z,4.00
2023-11-28T11:54:18.537Z,5.93
2023-11-28T11:57:06.577Z,4.65
2023-11-28T11:59:54.031Z,5.85
2023-11-28T12:02:43.484Z,4.50
2023-11-28T12:05:30.854Z,4.28
2023-11-28T12:08:18.264Z,4.95
2023-11-28T12:11:10.710Z,4.35
2023-11-28T12:14:00.344Z,3.67
2023-11-28T12:16:47.676Z,3.50
2023-11-28T12:19:35.364Z,3.42
2023-11-28T12:22:22.760Z,3.53
2023-11-28T12:25:19.974Z,4.70
2023-11-28T12:28:07.284Z,4.82
2023-11-28T12:30:55.125Z,3.85
2023-11-28T12:33:42.923Z,3.75
2023-11-28T12:36:30.209Z,3.75
2023-11-28T12:39:23.094Z,3.83
2023-11-28T12:42:14.637Z,4.30
2023-11-28T12:45:02.354Z,4.20
2023-11-28T12:47:49.893Z,4.10
2023-11-28T12:50:37.350Z,4.57
2023-11-28T12:53:26.616Z,3.80
2023-11-28T12:56:14.066Z,3.50
2023-11-28T12:59:03.520Z,3.13
2023-11-28T13:01:57.010Z,4.38
2023-11-28T13:04:44.948Z,3.35
2023-11-28T13:07:36.247Z,3.88
2023-11-28T13:10:29.762Z,3.75
2023-11-28T13:51:14.530Z,3.95
2023-11-28T13:54:01.748Z,4.50
2023-11-28T13:56:48.964Z,3.45
2023-11-28T13:59:36.497Z,3.30
2023-11-28T14:02:35.047Z,3.50
2023-11-28T14:05:30.640Z,3.55
2023-11-28T14:08:18.232Z,3.67
2023-11-28T14:11:05.853Z,3.65
2023-11-28T14:13:53.198Z,3.80
2023-11-28T14:16:40.555Z,3.42
2023-11-28T14:19:27.876Z,4.32
2023-11-28T14:22:15.144Z,3.70
2023-11-28T14:25:02.349Z,4.05
2023-11-28T14:27:51.211Z,3.60
2023-11-28T14:30:40.536Z,4.07
2023-11-28T14:33:30.322Z,3.70
2023-11-28T14:36:17.870Z,5.55
2023-11-28T14:39:05.120Z,5.32
2023-11-28T14:41:52.508Z,3.70
2023-11-28T14:44:39.967Z,4.03
2023-11-28T14:47:27.233Z,4.30
2023-11-28T14:50:14.657Z,11.02
2023-11-28T14:53:01.952Z,10.48
2023-11-28T14:55:49.242Z,5.50
2023-11-28T14:58:37.141Z,7.07
2023-11-28T15:01:26.030Z,8.25
2023-11-28T15:04:16.146Z,7.28
2023-11-28T15:07:04.966Z,6.35
2023-11-28T15:09:52.211Z,6.60
2023-11-28T15:12:39.518Z,6.78
2023-11-28T15:15:26.838Z,7.20
2023-11-28T15:18:14.380Z,7.60
2023-11-28T15:21:01.973Z,6.35
2023-11-28T15:23:50.045Z,5.40
2023-11-28T15:26:37.821Z,7.40
2023-11-28T15:29:25.221Z,8.50
2023-11-28T15:32:12.486Z,6.13
2023-11-28T15:34:59.820Z,4.40
2023-11-28T15:37:55.317Z,4.50
2023-11-28T15:40:48.714Z,5.30
2023-11-28T15:43:36.022Z,4.95
2023-11-28T15:46:23.383Z,5.75
2023-11-28T15:49:11.653Z,6.50
2023-11-28T15:51:59.062Z,8.80
2023-11-28T15:54:46.773Z,7.70
2023-11-28T15:57:36.755Z,9.93
2023-11-28T16:00:23.934Z,10.38
2023-11-28T16:03:15.178Z,9.57
2023-11-28T16:06:03.443Z,11.65
2023-11-28T16:08:50.720Z,11.55
2023-11-28T16:11:40.532Z,10.75
2023-11-28T16:14:28.971Z,7.35
2023-11-28T16:17:16.325Z,9.40
2023-11-28T16:20:09.310Z,6.18
2023-11-28T16:22:56.586Z,11.73
2023-11-28T16:25:43.780Z,10.85
2023-11-28T16:28:33.112Z,8.30
2023-11-28T16:31:21.793Z,7.75
2023-11-28T16:34:09.100Z,6.10
2023-11-28T16:36:56.417Z,24.13
2023-11-28T16:39:44.920Z,25.65
2023-11-28T16:42:34.713Z,10.32
2023-11-28T16:45:22.570Z,7.75
2023-11-28T16:48:09.790Z,7.47
2023-11-28T16:50:57.228Z,7.15
2023-11-28T16:53:45.604Z,6.32
2023-11-28T16:56:34.129Z,6.88
2023-11-28T16:59:21.416Z,8.45
2023-11-28T17:02:09.048Z,12.20
2023-11-28T17:04:56.363Z,10.00
2023-11-28T17:07:43.607Z,7.95
2023-11-28T17:10:32.716Z,9.32
2023-11-28T17:13:19.997Z,9.07
2023-11-28T17:16:08.375Z,10.35
2023-11-28T17:18:55.880Z,8.48
2023-11-28T17:21:44.543Z,11.98
2023-11-28T17:24:31.742Z,8.63
2023-11-28T17:27:19.775Z,8.70
2023-11-28T17:30:11.059Z,8.05
2023-11-28T17:32:58.352Z,8.73
2023-11-28T17:35:46.026Z,7.50
2023-11-28T17:38:33.397Z,8.63
2023-11-28T17:41:20.777Z,8.60
2023-11-28T17:44:08.351Z,8.93
2023-11-28T17:46:55.661Z,8.00
2023-11-28T17:49:43.057Z,7.68
2023-11-28T17:52:30.437Z,8.55
2023-11-28T17:55:17.621Z,8.18
2023-11-28T17:58:08.161Z,9.68
2023-11-28T18:00:55.394Z,10.02
2023-11-28T18:03:43.151Z,9.13
2023-11-28T18:06:30.437Z,8.95
2023-11-28T18:09:17.697Z,9.80
2023-11-28T18:12:05.072Z,8.80
2023-11-28T18:14:52.967Z,9.60
2023-11-28T18:17:40.256Z,8.98
2023-11-28T18:20:27.837Z,8.80
2023-11-28T18:23:17.729Z,8.60
2023-11-28T18:26:06.405Z,8.52
2023-11-28T18:28:53.643Z,8.63
2023-11-28T18:31:44.089Z,9.45
2023-11-28T18:34:31.363Z,9.52
2023-11-28T18:37:23.461Z,10.55
2023-11-28T18:40:13.774Z,11.55
2023-11-28T18:43:04.761Z,9.70
2023-11-28T18:46:01.778Z,11.50
2023-11-28T18:48:49.493Z,10.32
2023-11-28T18:51:36.962Z,9.77
2023-11-28T18:54:24.354Z,8.90
2023-11-28T18:57:11.884Z,8.60
2023-11-28T18:59:59.426Z,9.23
2023-11-28T19:02:48.677Z,8.18
2023-11-28T19:05:37.848Z,8.88
2023-11-28T19:08:25.132Z,8.80
2023-11-28T19:11:13.665Z,9.10
2023-11-28T19:14:05.181Z,7.47
2023-11-28T19:16:52.737Z,7.07
2023-11-28T19:19:41.205Z,7.72
2023-11-28T19:22:28.487Z,8.00
2023-11-28T19:25:15.958Z,9.00
2023-11-28T19:28:03.180Z,8.07
2023-11-28T19:30:50.416Z,7.68
2023-11-28T19:33:38.690Z,9.55
2023-11-28T19:36:28.168Z,9.35
2023-11-28T19:39:15.916Z,9.60
2023-11-28T19:42:03.709Z,10.00
2023-11-28T19:44:50.928Z,10.63
2023-11-28T19:47:38.804Z,12.15
2023-11-28T19:50:27.740Z,10.13
2023-11-28T19:53:18.677Z,10.55
2023-11-28T19:56:07.079Z,12.95
2023-11-28T19:58:54.342Z,13.38
2023-11-28T20:01:41.553Z,13.27
2023-11-28T20:04:28.941Z,11.45
2023-11-28T20:07:20.205Z,10.90
2023-11-28T20:10:09.961Z,12.13
2023-11-28T20:13:03.419Z,12.15
2023-11-28T20:15:51.442Z,12.63
2023-11-28T20:18:38.620Z,12.73
2023-11-28T20:21:25.936Z,16.13
2023-11-28T20:24:13.220Z,17.35
2023-11-28T20:27:00.646Z,21.17
2023-11-28T20:29:47.967Z,16.20
2023-11-28T20:32:35.339Z,16.58
2023-11-28T20:35:22.585Z,16.20
2023-11-28T20:38:09.933Z,18.85
2023-11-28T20:40:57.282Z,16.98
2023-11-28T20:43:46.224Z,14.90
2023-11-28T20:46:33.832Z,16.10
2023-11-28T20:49:21.156Z,16.75
2023-11-28T20:52:08.599Z,14.88
2023-11-28T20:54:56.746Z,14.98
2023-11-28T20:57:44.330Z,11.80
2023-11-28T21:00:31.601Z,14.05
2023-11-28T21:03:18.902Z,11.35
2023-11-28T21:06:06.762Z,13.48
2023-11-28T21:08:54.783Z,13.70
2023-11-28T21:11:42.108Z,12.70
2023-11-28T21:14:31.974Z,11.95
2023-11-28T21:17:19.471Z,13.23
2023-11-28T21:20:07.892Z,13.05
2023-11-28T21:22:55.292Z,14.00
2023-11-28T21:25:42.541Z,14.35
2023-11-28T21:28:29.798Z,13.20
2023-11-28T21:31:17.808Z,11.40
2023-11-28T21:34:05.284Z,14.23
2023-11-28T21:36:52.527Z,12.27
2023-11-28T21:39:39.919Z,12.00
2023-11-28T21:42:27.094Z,11.63
2023-11-28T21:45:14.454Z,11.60
2023-11-28T21:48:09.940Z,12.32
2023-11-28T21:51:03.008Z,11.70
2023-11-28T21:53:52.598Z,12.10
2023-11-28T21:56:39.942Z,13.98
2023-11-28T21:59:27.272Z,12.57
2023-11-28T22:02:14.669Z,13.75
2023-11-28T22:05:02.022Z,12.18
2023-11-28T22:07:49.431Z,16.13
2023-11-28T22:10:38.829Z,13.23
2023-11-28T22:13:26.851Z,14.35
2023-11-28T22:16:14.214Z,16.27
2023-11-28T22:19:01.594Z,14.05
2023-11-28T22:21:48.799Z,12.02
2023-11-28T22:24:36.120Z,14.85
2023-11-28T22:27:23.317Z,14.03
2023-11-28T22:30:11.513Z,12.32
2023-11-28T22:32:58.843Z,11.88
2023-11-28T22:35:46.188Z,12.30
2023-11-28T22:38:33.439Z,12.02
2023-11-28T22:41:20.854Z,12.77
2023-11-28T22:44:08.188Z,14.15
2023-11-28T22:46:55.751Z,11.73
2023-11-28T22:49:43.016Z,12.35
2023-11-28T22:52:30.411Z,12.45
2023-11-28T22:55:17.605Z,13.00
2023-11-28T22:58:04.920Z,14.45
2023-11-28T23:00:52.198Z,14.80
2023-11-28T23:03:39.797Z,11.52
2023-11-28T23:06:27.928Z,13.88
2023-11-28T23:09:15.320Z,13.02
2023-11-28T23:12:02.600Z,11.73
2023-11-28T23:14:49.858Z,13.35
2023-11-28T23:17:37.285Z,13.70
2023-11-28T23:20:24.718Z,11.25
2023-11-28T23:23:12.188Z,11.75
2023-11-28T23:25:59.528Z,13.20
2023-11-28T23:28:46.723Z,12.32
2023-11-28T23:31:34.492Z,15.65
2023-11-28T23:34:21.847Z,12.15
2023-11-28T23:37:09.102Z,12.13
2023-11-28T23:39:56.314Z,12.50
2023-11-28T23:42:49.620Z,9.63
2023-11-28T23:45:39.990Z,10.02
2023-11-28T23:48:27.338Z,11.52
2023-11-28T23:51:16.713Z,11.45
2023-11-28T23:54:04.784Z,10.30
2023-11-28T23:56:52.087Z,9.88
2023-11-28T23:59:39.392Z,9.20
